sensor_id;sensor_type;location;lat;lon;timestamp;pressure;altitude;pressure_sealevel;temperature;humidity
74542;BME280;63015;45.378;20.360;2022-10-16T00:00:53;101244.63;;;13.28;58.71
74542;BME280;63015;45.378;20.360;2022-10-16T00:02:53;101241.13;;;13.34;58.40
74542;BME280;63015;45.378;20.360;2022-10-16T00:04:54;101248.09;;;13.35;58.46
74542;BME280;63015;45.378;20.360;2022-10-16T00:06:55;101241.13;;;13.32;58.67
74542;BME280;63015;45.378;20.360;2022-10-16T00:08:56;101248.09;;;13.33;58.68
74542;BME280;63015;45.378;20.360;2022-10-16T00:11:11;101256.00;;;13.38;58.61
74542;BME280;63015;45.378;20.360;2022-10-16T00:13:12;101254.25;;;13.42;58.32
74542;BME280;63015;45.378;20.360;2022-10-16T00:15:13;101253.38;;;13.41;58.54
74542;BME280;63015;45.378;20.360;2022-10-16T00:17:13;101254.22;;;13.32;58.79
74542;BME280;63015;45.378;20.360;2022-10-16T00:19:14;101257.75;;;13.41;58.27
74542;BME280;63015;45.378;20.360;2022-10-16T00:21:18;101261.25;;;13.40;58.53
74542;BME280;63015;45.378;20.360;2022-10-16T00:23:19;101265.59;;;13.39;58.44
74542;BME280;63015;45.378;20.360;2022-10-16T00:25:20;101269.94;;;13.36;58.83
74542;BME280;63015;45.378;20.360;2022-10-16T00:27:20;101272.56;;;13.39;58.64
74542;BME280;63015;45.378;20.360;2022-10-16T00:29:21;101276.94;;;13.40;58.61
74542;BME280;63015;45.378;20.360;2022-10-16T00:31:22;101281.28;;;13.38;58.74
74542;BME280;63015;45.378;20.360;2022-10-16T00:33:23;101273.41;;;13.36;58.56
74542;BME280;63015;45.378;20.360;2022-10-16T00:35:24;101279.53;;;13.33;58.85
74542;BME280;63015;45.378;20.360;2022-10-16T00:37:25;101273.41;;;13.25;58.87
74542;BME280;63015;45.378;20.360;2022-10-16T00:39:25;101268.19;;;13.33;58.77
74542;BME280;63015;45.378;20.360;2022-10-16T00:41:27;101263.88;;;13.38;58.51
74542;BME280;63015;45.378;20.360;2022-10-16T00:45:41;101271.69;;;13.37;58.65
74542;BME280;63015;45.378;20.360;2022-10-16T00:47:44;101271.69;;;13.37;58.76
74542;BME280;63015;45.378;20.360;2022-10-16T00:49:48;101283.00;;;13.31;58.89
74542;BME280;63015;45.378;20.360;2022-10-16T00:51:52;101290.00;;;13.37;58.76
74542;BME280;63015;45.378;20.360;2022-10-16T00:53:55;101284.78;;;13.43;58.52
74542;BME280;63015;45.378;20.360;2022-10-16T00:55:56;101283.03;;;13.40;58.37
74542;BME280;63015;45.378;20.360;2022-10-16T00:57:57;101280.44;;;13.37;58.64
74542;BME280;63015;45.378;20.360;2022-10-16T00:59:58;101280.44;;;13.39;58.52
74542;BME280;63015;45.378;20.360;2022-10-16T01:02:00;101282.16;;;13.44;58.49
74542;BME280;63015;45.378;20.360;2022-10-16T01:04:00;101285.66;;;13.39;58.53
74542;BME280;63015;45.378;20.360;2022-10-16T01:06:24;101283.03;;;13.40;58.63
74542;BME280;63015;45.378;20.360;2022-10-16T01:08:46;101279.53;;;13.37;58.99
74542;BME280;63015;45.378;20.360;2022-10-16T01:10:59;101276.91;;;13.33;58.84
74542;BME280;63015;45.378;20.360;2022-10-16T01:13:30;101269.94;;;13.36;58.84
74542;BME280;63015;45.378;20.360;2022-10-16T01:17:46;101276.03;;;13.30;59.07
74542;BME280;63015;45.378;20.360;2022-10-16T01:20:03;101275.16;;;13.22;59.67
74542;BME280;63015;45.378;20.360;2022-10-16T01:22:07;101271.66;;;13.16;59.58
74542;BME280;63015;45.378;20.360;2022-10-16T01:26:32;101270.75;;;13.11;59.76
74542;BME280;63015;45.378;20.360;2022-10-16T01:30:54;101273.34;;;13.10;59.61
74542;BME280;63015;45.378;20.360;2022-10-16T01:33:14;101271.63;;;13.09;59.78
74542;BME280;63015;45.378;20.360;2022-10-16T01:35:38;101270.72;;;13.10;59.87
74542;BME280;63015;45.378;20.360;2022-10-16T01:38:10;101277.72;;;13.06;60.08
74542;BME280;63015;45.378;20.360;2022-10-16T01:40:15;101273.31;;;12.93;60.43
74542;BME280;63015;45.378;20.360;2022-10-16T01:42:22;101265.47;;;12.94;60.37
74542;BME280;63015;45.378;20.360;2022-10-16T01:44:29;101266.34;;;12.96;60.42
74542;BME280;63015;45.378;20.360;2022-10-16T01:46:34;101270.69;;;12.91;60.46
74542;BME280;63015;45.378;20.360;2022-10-16T01:48:36;101269.81;;;12.85;60.84
74542;BME280;63015;45.378;20.360;2022-10-16T01:50:39;101270.69;;;12.83;60.68
74542;BME280;63015;45.378;20.360;2022-10-16T01:52:44;101270.66;;;12.77;60.89
74542;BME280;63015;45.378;20.360;2022-10-16T01:54:49;101271.50;;;12.76;61.14
74542;BME280;63015;45.378;20.360;2022-10-16T01:56:52;101281.13;;;12.73;61.18
74542;BME280;63015;45.378;20.360;2022-10-16T01:58:56;101279.34;;;12.73;61.14
74542;BME280;63015;45.378;20.360;2022-10-16T02:00:59;101286.31;;;12.66;61.32
74542;BME280;63015;45.378;20.360;2022-10-16T02:03:01;101281.94;;;12.67;61.42
74542;BME280;63015;45.378;20.360;2022-10-16T02:05:17;101290.66;;;12.66;61.41
74542;BME280;63015;45.378;20.360;2022-10-16T02:07:20;101296.78;;;12.68;61.17
74542;BME280;63015;45.378;20.360;2022-10-16T02:09:21;101296.78;;;12.65;61.14
74542;BME280;63015;45.378;20.360;2022-10-16T02:11:22;101297.59;;;12.59;61.42
74542;BME280;63015;45.378;20.360;2022-10-16T02:13:39;101303.69;;;12.55;61.84
74542;BME280;63015;45.378;20.360;2022-10-16T02:15:43;101298.47;;;12.52;61.57
74542;BME280;63015;45.378;20.360;2022-10-16T02:17:43;101292.34;;;12.48;61.70
74542;BME280;63015;45.378;20.360;2022-10-16T02:19:45;101301.03;;;12.44;62.10
74542;BME280;63015;45.378;20.360;2022-10-16T02:21:54;101298.41;;;12.47;62.05
74542;BME280;63015;45.378;20.360;2022-10-16T02:25:58;101287.88;;;12.35;62.45
74542;BME280;63015;45.378;20.360;2022-10-16T02:28:17;101282.66;;;12.33;62.71
74542;BME280;63015;45.378;20.360;2022-10-16T02:30:34;101283.50;;;12.31;62.73
74542;BME280;63015;45.378;20.360;2022-10-16T02:32:38;101287.88;;;12.30;62.10
74542;BME280;63015;45.378;20.360;2022-10-16T02:34:40;101280.91;;;12.31;62.29
74542;BME280;63015;45.378;20.360;2022-10-16T02:36:42;101286.13;;;12.26;62.65
74542;BME280;63015;45.378;20.360;2022-10-16T02:38:44;101293.97;;;12.31;62.25
74542;BME280;63015;45.378;20.360;2022-10-16T02:40:46;101296.56;;;12.29;62.29
74542;BME280;63015;45.378;20.360;2022-10-16T02:42:50;101295.72;;;12.29;62.56
74542;BME280;63015;45.378;20.360;2022-10-16T02:44:51;101294.81;;;12.28;62.48
74542;BME280;63015;45.378;20.360;2022-10-16T02:46:52;101299.16;;;12.25;62.56
74542;BME280;63015;45.378;20.360;2022-10-16T02:48:53;101289.59;;;12.25;62.54
74542;BME280;63015;45.378;20.360;2022-10-16T02:50:53;101295.66;;;12.21;62.87
74542;BME280;63015;45.378;20.360;2022-10-16T02:52:54;101297.44;;;12.25;62.59
74542;BME280;63015;45.378;20.360;2022-10-16T02:54:54;101280.84;;;12.25;62.56
74542;BME280;63015;45.378;20.360;2022-10-16T02:56:55;101290.44;;;12.26;62.28
74542;BME280;63015;45.378;20.360;2022-10-16T02:58:56;101296.53;;;12.23;62.37
74542;BME280;63015;45.378;20.360;2022-10-16T03:00:57;101298.25;;;12.20;62.58
74542;BME280;63015;45.378;20.360;2022-10-16T03:02:57;101313.06;;;12.19;62.73
74542;BME280;63015;45.378;20.360;2022-10-16T03:04:58;101310.44;;;12.21;62.52
74542;BME280;63015;45.378;20.360;2022-10-16T03:06:58;101311.34;;;12.23;62.51
74542;BME280;63015;45.378;20.360;2022-10-16T03:08:59;101320.03;;;12.19;62.55
74542;BME280;63015;45.378;20.360;2022-10-16T03:11:00;101325.25;;;12.19;62.82
74542;BME280;63015;45.378;20.360;2022-10-16T03:13:02;101326.97;;;12.18;62.70
74542;BME280;63015;45.378;20.360;2022-10-16T03:15:03;101332.25;;;12.21;62.47
74542;BME280;63015;45.378;20.360;2022-10-16T03:17:04;101341.81;;;12.21;62.43
74542;BME280;63015;45.378;20.360;2022-10-16T03:19:05;101341.84;;;12.25;62.49
74542;BME280;63015;45.378;20.360;2022-10-16T03:21:05;101345.34;;;12.27;62.29
74542;BME280;63015;45.378;20.360;2022-10-16T03:23:06;101348.84;;;12.26;62.30
74542;BME280;63015;45.378;20.360;2022-10-16T03:25:08;101347.09;;;12.27;62.42
74542;BME280;63015;45.378;20.360;2022-10-16T03:27:09;101354.06;;;12.28;62.49
74542;BME280;63015;45.378;20.360;2022-10-16T03:29:10;101352.31;;;12.28;62.52
74542;BME280;63015;45.378;20.360;2022-10-16T03:31:10;101354.94;;;12.30;62.51
74542;BME280;63015;45.378;20.360;2022-10-16T03:33:11;101354.06;;;12.31;62.44
74542;BME280;63015;45.378;20.360;2022-10-16T03:35:12;101348.00;;;12.30;62.58
74542;BME280;63015;45.378;20.360;2022-10-16T03:37:13;101346.22;;;12.31;62.61
74542;BME280;63015;45.378;20.360;2022-10-16T03:39:13;101344.53;;;12.33;62.42
74542;BME280;63015;45.378;20.360;2022-10-16T03:41:14;101351.47;;;12.31;62.76
74542;BME280;63015;45.378;20.360;2022-10-16T03:43:15;101336.63;;;12.28;62.75
74542;BME280;63015;45.378;20.360;2022-10-16T03:45:16;101341.06;;;12.37;62.55
74542;BME280;63015;45.378;20.360;2022-10-16T03:47:16;101342.81;;;12.38;62.55
74542;BME280;63015;45.378;20.360;2022-10-16T03:49:20;101345.38;;;12.33;62.70
74542;BME280;63015;45.378;20.360;2022-10-16T03:51:21;101341.91;;;12.34;62.54
74542;BME280;63015;45.378;20.360;2022-10-16T03:53:22;101339.28;;;12.33;62.82
74542;BME280;63015;45.378;20.360;2022-10-16T03:55:22;101342.75;;;12.32;62.90
74542;BME280;63015;45.378;20.360;2022-10-16T03:57:23;101348.00;;;12.35;62.79
74542;BME280;63015;45.378;20.360;2022-10-16T03:59:24;101350.66;;;12.37;62.90
74542;BME280;63015;45.378;20.360;2022-10-16T04:01:24;101358.44;;;12.33;62.86
74542;BME280;63015;45.378;20.360;2022-10-16T04:03:25;101351.47;;;12.29;62.96
74542;BME280;63015;45.378;20.360;2022-10-16T04:05:26;101350.59;;;12.29;63.16
74542;BME280;63015;45.378;20.360;2022-10-16T04:07:26;101348.84;;;12.26;63.13
74542;BME280;63015;45.378;20.360;2022-10-16T04:09:27;101347.94;;;12.24;63.20
74542;BME280;63015;45.378;20.360;2022-10-16T04:11:28;101360.16;;;12.27;63.10
74542;BME280;63015;45.378;20.360;2022-10-16T04:13:28;101358.41;;;12.26;63.05
74542;BME280;63015;45.378;20.360;2022-10-16T04:15:29;101362.78;;;12.28;62.83
74542;BME280;63015;45.378;20.360;2022-10-16T04:17:30;101360.97;;;12.20;63.26
74542;BME280;63015;45.378;20.360;2022-10-16T04:19:30;101361.00;;;12.24;62.94
74542;BME280;63015;45.378;20.360;2022-10-16T04:21:31;101365.31;;;12.19;63.38
74542;BME280;63015;45.378;20.360;2022-10-16T04:23:32;101365.38;;;12.25;63.01
74542;BME280;63015;45.378;20.360;2022-10-16T04:25:32;101376.69;;;12.21;63.34
74542;BME280;63015;45.378;20.360;2022-10-16T04:27:33;101369.69;;;12.22;63.39
74542;BME280;63015;45.378;20.360;2022-10-16T04:29:33;101381.84;;;12.18;63.46
74542;BME280;63015;45.378;20.360;2022-10-16T04:31:34;101374.00;;;12.13;63.64
74542;BME280;63015;45.378;20.360;2022-10-16T04:33:35;101379.19;;;12.09;63.77
74542;BME280;63015;45.378;20.360;2022-10-16T04:35:35;101382.69;;;12.11;63.66
74542;BME280;63015;45.378;20.360;2022-10-16T04:37:36;101385.31;;;12.15;63.51
74542;BME280;63015;45.378;20.360;2022-10-16T04:39:37;101386.22;;;12.16;63.49
74542;BME280;63015;45.378;20.360;2022-10-16T04:41:37;101389.69;;;12.16;63.42
74542;BME280;63015;45.378;20.360;2022-10-16T04:43:38;101387.06;;;12.15;63.43
74542;BME280;63015;45.378;20.360;2022-10-16T04:45:38;101380.94;;;12.14;63.44
74542;BME280;63015;45.378;20.360;2022-10-16T04:47:39;101380.03;;;12.08;63.65
74542;BME280;63015;45.378;20.360;2022-10-16T04:49:40;101380.88;;;12.02;63.63
74542;BME280;63015;45.378;20.360;2022-10-16T04:51:40;101383.50;;;12.05;63.53
74542;BME280;63015;45.378;20.360;2022-10-16T04:53:41;101385.19;;;12.00;63.99
74542;BME280;63015;45.378;20.360;2022-10-16T04:55:42;101385.19;;;12.01;64.01
74542;BME280;63015;45.378;20.360;2022-10-16T04:57:42;101393.09;;;12.05;63.70
74542;BME280;63015;45.378;20.360;2022-10-16T04:59:43;101390.47;;;12.05;63.79
74542;BME280;63015;45.378;20.360;2022-10-16T05:01:44;101397.47;;;12.07;63.50
74542;BME280;63015;45.378;20.360;2022-10-16T05:03:45;101393.94;;;12.00;63.81
74542;BME280;63015;45.378;20.360;2022-10-16T05:05:46;101391.31;;;12.02;63.74
74542;BME280;63015;45.378;20.360;2022-10-16T05:07:47;101389.47;;;11.95;63.94
74542;BME280;63015;45.378;20.360;2022-10-16T05:09:48;101401.66;;;11.93;64.37
74542;BME280;63015;45.378;20.360;2022-10-16T05:11:49;101404.28;;;11.94;64.23
74542;BME280;63015;45.378;20.360;2022-10-16T05:13:49;101412.16;;;11.97;64.06
74542;BME280;63015;45.378;20.360;2022-10-16T05:15:50;101407.75;;;11.95;64.22
74542;BME280;63015;45.378;20.360;2022-10-16T05:17:54;101413.84;;;11.94;64.44
74542;BME280;63015;45.378;20.360;2022-10-16T05:19:54;101414.78;;;11.96;64.31
74542;BME280;63015;45.378;20.360;2022-10-16T05:21:55;101418.31;;;12.03;63.99
74542;BME280;63015;45.378;20.360;2022-10-16T05:23:56;101419.16;;;12.00;64.32
74542;BME280;63015;45.378;20.360;2022-10-16T05:25:57;101408.69;;;12.00;64.41
74542;BME280;63015;45.378;20.360;2022-10-16T05:27:58;101416.53;;;12.00;64.43
74542;BME280;63015;45.378;20.360;2022-10-16T05:29:59;101420.06;;;12.00;64.29
74542;BME280;63015;45.378;20.360;2022-10-16T05:32:00;101415.75;;;12.06;64.12
74542;BME280;63015;45.378;20.360;2022-10-16T05:34:01;101415.69;;;12.04;64.28
74542;BME280;63015;45.378;20.360;2022-10-16T05:36:08;101425.41;;;12.17;63.91
74542;BME280;63015;45.378;20.360;2022-10-16T05:38:09;101428.88;;;12.15;63.97
74542;BME280;63015;45.378;20.360;2022-10-16T05:40:10;101422.88;;;12.28;63.80
74542;BME280;63015;45.378;20.360;2022-10-16T05:42:11;101428.16;;;12.38;63.76
74542;BME280;63015;45.378;20.360;2022-10-16T05:44:12;101427.38;;;12.46;63.39
74542;BME280;63015;45.378;20.360;2022-10-16T05:46:13;101431.81;;;12.58;63.02
74542;BME280;63015;45.378;20.360;2022-10-16T05:48:14;101423.97;;;12.55;63.08
74542;BME280;63015;45.378;20.360;2022-10-16T05:50:14;101434.53;;;12.72;62.86
74542;BME280;63015;45.378;20.360;2022-10-16T05:52:15;101438.09;;;12.87;62.43
74542;BME280;63015;45.378;20.360;2022-10-16T05:54:16;101440.75;;;12.93;62.20
74542;BME280;63015;45.378;20.360;2022-10-16T05:56:16;101440.78;;;12.99;62.01
74542;BME280;63015;45.378;20.360;2022-10-16T05:58:17;101447.81;;;13.09;61.46
74542;BME280;63015;45.378;20.360;2022-10-16T06:00:17;101442.59;;;13.08;61.48
74542;BME280;63015;45.378;20.360;2022-10-16T06:02:18;101445.19;;;13.12;61.42
74542;BME280;63015;45.378;20.360;2022-10-16T06:04:19;101447.00;;;13.20;61.21
74542;BME280;63015;45.378;20.360;2022-10-16T06:06:21;101457.50;;;13.27;60.76
74542;BME280;63015;45.378;20.360;2022-10-16T06:08:23;101462.84;;;13.40;60.36
74542;BME280;63015;45.378;20.360;2022-10-16T06:10:23;101460.25;;;13.46;60.30
74542;BME280;63015;45.378;20.360;2022-10-16T06:12:24;101455.00;;;13.52;60.17
74542;BME280;63015;45.378;20.360;2022-10-16T06:14:25;101460.28;;;13.64;59.78
74542;BME280;63015;45.378;20.360;2022-10-16T06:16:26;101460.31;;;13.83;59.62
74542;BME280;63015;45.378;20.360;2022-10-16T06:18:27;101463.84;;;13.94;58.77
74542;BME280;63015;45.378;20.360;2022-10-16T06:20:28;101469.13;;;14.13;58.63
74542;BME280;63015;45.378;20.360;2022-10-16T06:22:29;101471.75;;;14.25;58.27
74542;BME280;63015;45.378;20.360;2022-10-16T06:24:30;101463.00;;;14.25;57.98
74542;BME280;63015;45.378;20.360;2022-10-16T06:26:31;101463.88;;;14.45;57.15
74542;BME280;63015;45.378;20.360;2022-10-16T06:28:32;101474.38;;;14.66;57.00
74542;BME280;63015;45.378;20.360;2022-10-16T06:30:33;101468.25;;;14.74;56.14
74542;BME280;63015;45.378;20.360;2022-10-16T06:32:33;101476.97;;;14.95;55.79
74542;BME280;63015;45.378;20.360;2022-10-16T06:34:34;101473.44;;;15.11;55.96
74542;BME280;63015;45.378;20.360;2022-10-16T06:36:35;101477.81;;;15.11;55.33
74542;BME280;63015;45.378;20.360;2022-10-16T06:38:36;101477.78;;;15.26;55.63
74542;BME280;63015;45.378;20.360;2022-10-16T06:40:36;101481.16;;;15.50;55.13
74542;BME280;63015;45.378;20.360;2022-10-16T06:42:37;101483.75;;;15.53;54.71
74542;BME280;63015;45.378;20.360;2022-10-16T06:44:38;101484.53;;;15.78;54.35
74542;BME280;63015;45.378;20.360;2022-10-16T06:46:38;101489.78;;;15.85;53.24
74542;BME280;63015;45.378;20.360;2022-10-16T06:48:39;101487.13;;;15.80;53.10
74542;BME280;63015;45.378;20.360;2022-10-16T06:50:40;101494.97;;;15.95;53.16
74542;BME280;63015;45.378;20.360;2022-10-16T06:52:40;101498.53;;;15.88;52.30
74542;BME280;63015;45.378;20.360;2022-10-16T06:54:41;101502.94;;;15.85;52.56
74542;BME280;63015;45.378;20.360;2022-10-16T06:56:42;101502.84;;;16.00;52.28
74542;BME280;63015;45.378;20.360;2022-10-16T06:58:43;101506.31;;;16.05;52.81
74542;BME280;63015;45.378;20.360;2022-10-16T07:00:44;101507.97;;;16.20;52.17
74542;BME280;63015;45.378;20.360;2022-10-16T07:02:44;101505.38;;;16.11;52.12
74542;BME280;63015;45.378;20.360;2022-10-16T07:04:45;101512.38;;;16.14;51.75
74542;BME280;63015;45.378;20.360;2022-10-16T07:06:45;101504.41;;;16.31;51.51
74542;BME280;63015;45.378;20.360;2022-10-16T07:08:46;101501.59;;;16.51;51.45
74542;BME280;63015;45.378;20.360;2022-10-16T07:10:47;101513.69;;;16.73;50.81
74542;BME280;63015;45.378;20.360;2022-10-16T07:12:48;101507.34;;;16.96;50.41
74542;BME280;63015;45.378;20.360;2022-10-16T07:14:50;101508.81;;;17.23;50.28
74542;BME280;63015;45.378;20.360;2022-10-16T07:16:52;101498.41;;;17.11;49.58
74542;BME280;63015;45.378;20.360;2022-10-16T07:18:54;101508.84;;;17.20;49.26
74542;BME280;63015;45.378;20.360;2022-10-16T07:21:06;101504.38;;;17.29;48.65
74542;BME280;63015;45.378;20.360;2022-10-16T07:23:07;101516.63;;;17.33;48.75
74542;BME280;63015;45.378;20.360;2022-10-16T07:25:08;101516.47;;;17.47;48.54
74542;BME280;63015;45.378;20.360;2022-10-16T07:27:09;101512.19;;;17.36;48.83
74542;BME280;63015;45.378;20.360;2022-10-16T07:29:14;101509.47;;;17.44;48.61
74542;BME280;63015;45.378;20.360;2022-10-16T07:31:16;101520.75;;;17.54;47.92
74542;BME280;63015;45.378;20.360;2022-10-16T07:33:17;101517.34;;;17.46;48.28
74542;BME280;63015;45.378;20.360;2022-10-16T07:35:18;101512.94;;;17.46;47.50
74542;BME280;63015;45.378;20.360;2022-10-16T07:37:19;101523.72;;;17.24;47.64
74542;BME280;63015;45.378;20.360;2022-10-16T07:39:19;101525.63;;;17.13;47.51
74542;BME280;63015;45.378;20.360;2022-10-16T07:41:20;101519.25;;;17.30;47.70
74542;BME280;63015;45.378;20.360;2022-10-16T07:43:21;101521.81;;;17.39;47.38
74542;BME280;63015;45.378;20.360;2022-10-16T07:45:21;101527.94;;;17.41;47.45
74542;BME280;63015;45.378;20.360;2022-10-16T07:47:22;101517.34;;;17.46;46.96
74542;BME280;63015;45.378;20.360;2022-10-16T07:49:23;101527.19;;;17.28;47.07
74542;BME280;63015;45.378;20.360;2022-10-16T07:51:25;101527.72;;;17.58;47.29
74542;BME280;63015;45.378;20.360;2022-10-16T07:53:26;101529.25;;;17.74;46.78
74542;BME280;63015;45.378;20.360;2022-10-16T07:55:27;101537.84;;;17.94;46.41
74542;BME280;63015;45.378;20.360;2022-10-16T07:57:28;101531.44;;;18.12;46.78
74542;BME280;63015;45.378;20.360;2022-10-16T07:59:28;101537.44;;;18.21;46.16
74542;BME280;63015;45.378;20.360;2022-10-16T08:01:29;101545.31;;;18.24;45.96
74542;BME280;63015;45.378;20.360;2022-10-16T08:03:29;101539.81;;;18.38;45.96
74542;BME280;63015;45.378;20.360;2022-10-16T08:05:32;101541.25;;;18.58;45.60
74542;BME280;63015;45.378;20.360;2022-10-16T08:07:33;101542.03;;;18.66;45.44
74542;BME280;63015;45.378;20.360;2022-10-16T08:09:34;101538.47;;;18.69;44.60
74542;BME280;63015;45.378;20.360;2022-10-16T08:11:34;101544.66;;;18.66;45.00
74542;BME280;63015;45.378;20.360;2022-10-16T08:13:35;101549.16;;;18.61;45.05
74542;BME280;63015;45.378;20.360;2022-10-16T08:15:36;101546.38;;;18.67;44.93
74542;BME280;63015;45.378;20.360;2022-10-16T08:17:37;101533.94;;;18.76;44.72
74542;BME280;63015;45.378;20.360;2022-10-16T08:19:38;101542.69;;;18.78;44.76
74542;BME280;63015;45.378;20.360;2022-10-16T08:21:39;101544.19;;;18.94;44.81
74542;BME280;63015;45.378;20.360;2022-10-16T08:23:39;101547.59;;;19.01;44.31
74542;BME280;63015;45.378;20.360;2022-10-16T08:25:40;101541.56;;;19.39;43.77
74542;BME280;63015;45.378;20.360;2022-10-16T08:27:41;101545.16;;;19.37;43.53
74542;BME280;63015;45.378;20.360;2022-10-16T08:29:42;101541.63;;;19.38;43.41
74542;BME280;63015;45.378;20.360;2022-10-16T08:31:42;101547.47;;;19.54;43.68
74542;BME280;63015;45.378;20.360;2022-10-16T08:33:45;101551.72;;;19.61;43.92
74542;BME280;63015;45.378;20.360;2022-10-16T08:35:51;101547.00;;;19.76;42.83
74542;BME280;63015;45.378;20.360;2022-10-16T08:37:52;101554.94;;;19.77;42.48
74542;BME280;63015;45.378;20.360;2022-10-16T08:39:53;101558.34;;;19.84;42.52
74542;BME280;63015;45.378;20.360;2022-10-16T08:42:23;101568.69;;;19.95;42.64
74542;BME280;63015;45.378;20.360;2022-10-16T08:49:12;101560.75;;;20.34;41.07
74542;BME280;63015;45.378;20.360;2022-10-16T08:51:24;101560.34;;;20.13;41.19
74542;BME280;63015;45.378;20.360;2022-10-16T08:53:41;101562.56;;;19.91;41.78
74542;BME280;63015;45.378;20.360;2022-10-16T08:55:51;101564.97;;;20.03;42.24
74542;BME280;63015;45.378;20.360;2022-10-16T08:57:52;101565.53;;;20.18;42.18
74542;BME280;63015;45.378;20.360;2022-10-16T08:59:53;101562.38;;;20.40;42.08
74542;BME280;63015;45.378;20.360;2022-10-16T09:01:55;101565.75;;;20.46;41.64
74542;BME280;63015;45.378;20.360;2022-10-16T09:10:46;101577.03;;;20.54;41.33
74542;BME280;63015;45.378;20.360;2022-10-16T09:19:45;101581.66;;;20.45;40.90
74542;BME280;63015;45.378;20.360;2022-10-16T09:21:48;101589.78;;;20.75;41.13
74542;BME280;63015;45.378;20.360;2022-10-16T09:23:49;101578.97;;;20.46;40.83
74542;BME280;63015;45.378;20.360;2022-10-16T09:25:50;101584.53;;;20.35;40.75
74542;BME280;63015;45.378;20.360;2022-10-16T09:27:53;101586.34;;;20.73;40.67
74542;BME280;63015;45.378;20.360;2022-10-16T09:29:54;101577.25;;;20.83;40.94
74542;BME280;63015;45.378;20.360;2022-10-16T09:31:57;101576.56;;;21.09;40.59
74542;BME280;63015;45.378;20.360;2022-10-16T09:34:21;101570.41;;;21.07;40.08
74542;BME280;63015;45.378;20.360;2022-10-16T09:36:27;101574.25;;;20.95;39.90
74542;BME280;63015;45.378;20.360;2022-10-16T09:38:34;101577.59;;;21.03;40.30
74542;BME280;63015;45.378;20.360;2022-10-16T09:40:38;101578.00;;;21.23;40.05
74542;BME280;63015;45.378;20.360;2022-10-16T09:42:39;101575.78;;;21.39;39.25
74542;BME280;63015;45.378;20.360;2022-10-16T09:44:40;101579.28;;;21.39;39.74
74542;BME280;63015;45.378;20.360;2022-10-16T09:46:41;101581.19;;;21.34;39.07
74542;BME280;63015;45.378;20.360;2022-10-16T09:48:48;101578.75;;;21.26;39.02
74542;BME280;63015;45.378;20.360;2022-10-16T09:51:01;101582.44;;;21.54;39.21
74542;BME280;63015;45.378;20.360;2022-10-16T09:53:10;101582.50;;;21.50;38.72
74542;BME280;63015;45.378;20.360;2022-10-16T09:55:17;101596.66;;;21.18;38.29
74542;BME280;63015;45.378;20.360;2022-10-16T09:57:18;101584.47;;;21.11;39.06
74542;BME280;63015;45.378;20.360;2022-10-16T09:59:22;101590.81;;;21.38;38.71
74542;BME280;63015;45.378;20.360;2022-10-16T10:01:48;101580.06;;;21.43;37.93
74542;BME280;63015;45.378;20.360;2022-10-16T10:03:56;101586.91;;;21.51;38.11
74542;BME280;63015;45.378;20.360;2022-10-16T10:06:13;101586.38;;;21.39;38.12
74542;BME280;63015;45.378;20.360;2022-10-16T10:08:17;101585.47;;;21.40;38.14
74542;BME280;63015;45.378;20.360;2022-10-16T10:10:29;101579.16;;;21.44;37.64
74542;BME280;63015;45.378;20.360;2022-10-16T10:12:32;101581.22;;;21.32;38.02
74542;BME280;63015;45.378;20.360;2022-10-16T10:14:45;101576.72;;;21.03;38.38
74542;BME280;63015;45.378;20.360;2022-10-16T10:16:47;101574.53;;;21.19;38.46
74542;BME280;63015;45.378;20.360;2022-10-16T10:18:58;101576.09;;;21.26;38.90
74542;BME280;63015;45.378;20.360;2022-10-16T10:21:00;101572.78;;;21.51;38.29
74542;BME280;63015;45.378;20.360;2022-10-16T10:23:20;101575.31;;;21.56;38.17
74542;BME280;63015;45.378;20.360;2022-10-16T10:25:52;101573.91;;;21.42;38.62
74542;BME280;63015;45.378;20.360;2022-10-16T10:28:17;101565.66;;;21.84;37.61
74542;BME280;63015;45.378;20.360;2022-10-16T10:30:29;101571.72;;;21.88;38.31
74542;BME280;63015;45.378;20.360;2022-10-16T10:32:55;101569.16;;;21.85;38.28
74542;BME280;63015;45.378;20.360;2022-10-16T10:39:44;101567.41;;;21.84;37.15
74542;BME280;63015;45.378;20.360;2022-10-16T10:46:14;101571.75;;;21.87;37.88
74542;BME280;63015;45.378;20.360;2022-10-16T10:51:13;101562.13;;;21.84;37.58
74542;BME280;63015;45.378;20.360;2022-10-16T11:05:49;101559.41;;;22.71;36.56
74542;BME280;63015;45.378;20.360;2022-10-16T11:08:01;101552.31;;;22.44;36.01
74542;BME280;63015;45.378;20.360;2022-10-16T11:10:09;101561.41;;;22.36;36.65
74542;BME280;63015;45.378;20.360;2022-10-16T11:12:33;101553.16;;;22.45;37.02
74542;BME280;63015;45.378;20.360;2022-10-16T11:15:02;101547.09;;;22.68;36.73
74542;BME280;63015;45.378;20.360;2022-10-16T11:17:12;101547.44;;;23.09;36.52
74542;BME280;63015;45.378;20.360;2022-10-16T11:19:50;101550.88;;;23.38;36.31
74542;BME280;63015;45.378;20.360;2022-10-16T11:22:13;101551.59;;;23.18;35.90
74542;BME280;63015;45.378;20.360;2022-10-16T11:24:42;101551.34;;;22.99;35.99
74542;BME280;63015;45.378;20.360;2022-10-16T11:26:45;101549.44;;;23.03;36.04
74542;BME280;63015;45.378;20.360;2022-10-16T11:28:50;101543.56;;;23.20;36.16
74542;BME280;63015;45.378;20.360;2022-10-16T11:30:57;101543.78;;;23.13;35.55
74542;BME280;63015;45.378;20.360;2022-10-16T11:35:19;101542.72;;;22.92;35.18